createdAt,value
2023-05-02T00:02:17.966Z,100055.13
2023-05-02T00:04:45.204Z,100061.91
2023-05-02T00:07:12.365Z,100066.16
2023-05-02T00:09:39.473Z,100065.31
2023-05-02T00:12:06.570Z,100072.09
2023-05-02T00:14:33.618Z,100064.47
2023-05-02T00:17:00.602Z,100060.22
2023-05-02T00:19:27.633Z,100063.63
2023-05-02T00:21:54.570Z,100061.94
2023-05-02T00:24:21.517Z,100064.47
2023-05-02T00:26:48.583Z,100069.56
2023-05-02T00:29:15.564Z,100071.25
2023-05-02T00:31:42.652Z,100068.69
2023-05-02T00:34:09.747Z,100069.53
2023-05-02T00:36:37.272Z,100067.88
2023-05-02T00:39:04.741Z,100071.25
2023-05-02T00:41:31.682Z,100072.06
2023-05-02T00:43:59.137Z,100077.97
2023-05-02T00:46:26.361Z,100081.38
2023-05-02T00:48:53.706Z,100078.81
2023-05-02T00:51:20.853Z,100082.22
2023-05-02T00:53:48.488Z,100081.38
2023-05-02T00:56:15.929Z,100085.63
2023-05-02T00:58:45.416Z,100083.97
2023-05-02T01:01:39.495Z,100090.72
2023-05-02T01:04:46.597Z,100104.28
2023-05-02T01:07:47.919Z,100105.16
2023-05-02T01:10:44.886Z,100105.16
2023-05-02T01:13:25.788Z,100113.63
2023-05-02T01:15:57.593Z,100120.38
2023-05-02T01:18:29.956Z,100116.97
2023-05-02T01:21:04.632Z,100122.91
2023-05-02T01:23:59.624Z,100118.66
2023-05-02T01:26:52.928Z,100111.00
2023-05-02T01:29:23.314Z,100115.22
2023-05-02T01:31:52.470Z,100116.06
2023-05-02T01:34:22.164Z,100120.28
2023-05-02T01:36:51.536Z,100123.66
2023-05-02T01:39:25.444Z,100131.25
2023-05-02T01:41:56.698Z,100130.41
2023-05-02T01:44:27.152Z,100126.19
2023-05-02T01:46:56.783Z,100131.25
2023-05-02T01:49:26.033Z,100137.16
2023-05-02T01:51:53.433Z,100139.66
2023-05-02T01:54:24.465Z,100141.34
2023-05-02T01:56:52.889Z,100143.06
2023-05-02T01:59:24.435Z,100137.97
2023-05-02T02:01:53.064Z,100140.50
2023-05-02T02:04:21.904Z,100151.53
2023-05-02T02:06:58.482Z,100151.53
2023-05-02T02:09:25.825Z,100140.50
2023-05-02T02:12:08.693Z,100152.31
2023-05-02T02:14:42.692Z,100156.56
2023-05-02T02:17:19.427Z,100152.31
2023-05-02T02:19:46.448Z,100150.66
2023-05-02T02:22:18.289Z,100154.03
2023-05-02T02:24:48.523Z,100150.63
2023-05-02T02:27:15.900Z,100158.25
2023-05-02T02:29:43.429Z,100149.75
2023-05-02T02:32:10.363Z,100156.53
2023-05-02T02:34:37.494Z,100154.81
2023-05-02T02:37:17.992Z,100155.63
2023-05-02T02:40:28.633Z,100162.44
2023-05-02T02:43:13.544Z,100159.94
2023-05-02T02:46:17.151Z,100159.06
2023-05-02T02:49:01.925Z,100169.25
2023-05-02T02:51:53.371Z,100161.63
2023-05-02T02:54:30.252Z,100163.31
2023-05-02T02:57:13.920Z,100167.53
2023-05-02T03:00:04.094Z,100164.13
2023-05-02T03:02:33.868Z,100169.19
2023-05-02T03:05:03.720Z,100171.72
2023-05-02T03:07:31.567Z,100171.72
2023-05-02T03:10:05.200Z,100167.47
2023-05-02T03:12:34.263Z,100172.56
2023-05-02T03:15:41.512Z,100178.47
2023-05-02T03:18:09.575Z,100176.78
2023-05-02T03:20:36.637Z,100178.47
2023-05-02T03:23:04.246Z,100181.00
2023-05-02T03:25:31.183Z,100184.38
2023-05-02T03:27:58.385Z,100182.69
2023-05-02T03:30:25.970Z,100175.91
2023-05-02T03:32:53.159Z,100181.81
2023-05-02T03:35:20.198Z,100183.53
2023-05-02T03:37:50.745Z,100188.63
2023-05-02T03:40:21.693Z,100190.34
2023-05-02T03:42:48.907Z,100192.00
2023-05-02T03:45:25.220Z,100189.44
2023-05-02T03:47:53.099Z,100197.09
2023-05-02T03:50:20.236Z,100195.38
2023-05-02T03:52:49.432Z,100197.09
2023-05-02T03:55:21.317Z,100203.84
2023-05-02T03:57:49.635Z,100205.56
2023-05-02T04:00:17.823Z,100204.72
2023-05-02T04:02:52.107Z,100208.97
2023-05-02T04:05:22.620Z,100210.66
2023-05-02T04:07:50.532Z,100214.03
2023-05-02T04:10:18.220Z,100216.59
2023-05-02T04:12:51.887Z,100227.63
2023-05-02T04:15:19.804Z,100229.31
2023-05-02T04:17:49.016Z,100225.06
2023-05-02T04:20:17.112Z,100228.44
2023-05-02T04:22:50.114Z,100231.00
2023-05-02T04:25:17.714Z,100231.84
2023-05-02T04:27:44.706Z,100242.84
2023-05-02T04:30:15.419Z,100242.88
2023-05-02T04:32:47.281Z,100245.41
2023-05-02T04:35:15.493Z,100254.75
2023-05-02T04:37:42.670Z,100253.88
2023-05-02T04:40:11.309Z,100255.59
2023-05-02T04:42:38.943Z,100253.88
2023-05-02T04:45:16.248Z,100262.38
2023-05-02T04:47:45.037Z,100267.47
2023-05-02T04:50:12.027Z,100268.31
2023-05-02T04:52:39.113Z,100266.63
2023-05-02T04:55:06.971Z,100265.78
2023-05-02T04:57:34.182Z,100270.03
2023-05-02T05:00:03.489Z,100280.22
2023-05-02T05:02:31.936Z,100285.31
2023-05-02T05:05:01.737Z,100292.13
2023-05-02T05:07:29.125Z,100287.84
2023-05-02T05:09:56.174Z,100290.41
2023-05-02T05:12:26.081Z,100294.66
2023-05-02T05:14:53.632Z,100304.84
2023-05-02T05:17:23.481Z,100295.53
2023-05-02T05:19:50.551Z,100303.16
2023-05-02T05:22:17.681Z,100307.38
2023-05-02T05:24:54.769Z,100310.81
2023-05-02T05:27:24.852Z,100312.47
2023-05-02T05:29:52.249Z,100322.69
2023-05-02T05:32:20.316Z,100320.13
2023-05-02T05:34:52.961Z,100326.06
2023-05-02T05:37:22.149Z,100324.34
2023-05-02T05:39:49.306Z,100333.69
2023-05-02T05:42:16.835Z,100341.31
2023-05-02T05:44:46.237Z,100342.19
2023-05-02T05:47:24.936Z,100344.72
2023-05-02T05:49:56.740Z,100352.38
2023-05-02T05:52:27.940Z,100352.34
2023-05-02T05:54:56.735Z,100356.59
2023-05-02T05:57:25.333Z,100360.84
2023-05-02T05:59:53.809Z,100357.44
2023-05-02T06:02:21.318Z,100367.63
2023-05-02T06:04:48.399Z,100368.50
2023-05-02T06:07:17.717Z,100372.72
2023-05-02T06:09:45.487Z,100371.88
2023-05-02T06:12:13.256Z,100370.19
2023-05-02T06:14:40.933Z,100373.56
2023-05-02T06:17:08.908Z,100377.84
2023-05-02T06:19:35.874Z,100378.69
2023-05-02T06:22:02.892Z,100377.84
2023-05-02T06:24:29.932Z,100379.50
2023-05-02T06:26:56.906Z,100380.34
2023-05-02T06:29:23.884Z,100386.25
2023-05-02T06:31:54.747Z,100388.78
2023-05-02T06:34:21.712Z,100391.31
2023-05-02T06:36:48.709Z,100398.06
2023-05-02T06:39:15.838Z,100399.75
2023-05-02T06:41:43.038Z,100404.81
2023-05-02T06:44:15.776Z,100407.31
2023-05-02T06:46:43.341Z,100411.50
2023-05-02T06:49:10.733Z,100408.94
2023-05-02T06:51:37.729Z,100425.03
2023-05-02T06:54:06.369Z,100429.28
2023-05-02T06:56:33.384Z,100426.69
2023-05-02T06:59:01.251Z,100436.03
2023-05-02T07:01:28.247Z,100436.88
2023-05-02T07:03:55.379Z,100435.19
2023-05-02T07:06:22.517Z,100451.31
2023-05-02T07:08:49.526Z,100440.25
2023-05-02T07:11:16.565Z,100443.66
2023-05-02T07:13:43.582Z,100446.22
2023-05-02T07:16:10.825Z,100445.38
2023-05-02T07:18:37.799Z,100443.66
2023-05-02T07:21:05.531Z,100455.56
2023-05-02T07:23:32.527Z,100459.81
2023-05-02T07:25:59.643Z,100464.94
2023-05-02T07:28:26.619Z,100464.94
2023-05-02T07:30:53.575Z,100471.75
2023-05-02T07:33:20.604Z,100467.56
2023-05-02T07:35:47.774Z,100483.72
2023-05-02T07:38:15.367Z,100475.22
2023-05-02T07:40:43.418Z,100473.53
2023-05-02T07:43:11.332Z,100483.72
2023-05-02T07:45:38.584Z,100484.53
2023-05-02T07:48:05.751Z,100485.34
2023-05-02T07:50:32.725Z,100488.66
2023-05-02T07:53:00.442Z,100497.06
2023-05-02T07:55:27.435Z,100493.47
2023-05-02T07:57:54.426Z,100501.75
2023-05-02T08:00:21.461Z,100500.63
2023-05-02T08:02:48.571Z,100493.63
2023-05-02T08:05:15.788Z,100506.19
2023-05-02T08:07:43.123Z,100500.97
2023-05-02T08:10:10.640Z,100512.81
2023-05-02T08:12:42.394Z,100509.31
2023-05-02T08:15:13.551Z,100507.53
2023-05-02T08:17:40.608Z,100511.66
2023-05-02T08:20:08.437Z,100513.16
2023-05-02T08:22:35.604Z,100520.66
2023-05-02T08:25:02.599Z,100525.59
2023-05-02T08:27:29.697Z,100525.47
2023-05-02T08:29:57.964Z,100518.47
2023-05-02T08:32:26.943Z,100527.63
2023-05-02T08:34:59.271Z,100533.47
2023-05-02T08:37:26.283Z,100533.53
2023-05-02T08:39:53.277Z,100530.28
2023-05-02T08:42:21.579Z,100529.53
2023-05-02T08:44:52.384Z,100525.09
2023-05-02T08:47:21.682Z,100531.59
2023-05-02T08:49:50.113Z,100534.63
2023-05-02T08:52:21.518Z,100533.41
2023-05-02T08:54:51.475Z,100540.63
2023-05-02T08:57:18.576Z,100534.31
2023-05-02T08:59:45.485Z,100535.75
2023-05-02T09:02:47.277Z,100534.53
2023-05-02T09:05:20.973Z,100545.84
2023-05-02T09:07:52.165Z,100544.53
2023-05-02T09:10:19.348Z,100558.81
2023-05-02T09:12:46.514Z,100562.34
2023-05-02T09:15:20.536Z,100561.75
2023-05-02T09:17:49.256Z,100566.31
2023-05-02T09:20:16.997Z,100566.53
2023-05-02T09:22:52.679Z,100559.94
2023-05-02T09:25:22.889Z,100567.78
2023-05-02T09:27:52.545Z,100561.84
2023-05-02T09:30:28.575Z,100570.44
2023-05-02T09:32:56.179Z,100568.56
2023-05-02T09:35:26.614Z,100576.03
2023-05-02T09:37:56.704Z,100580.03
2023-05-02T09:40:25.114Z,100581.56
2023-05-02T09:42:52.914Z,100580.59
2023-05-02T09:45:22.418Z,100584.78
2023-05-02T09:47:50.577Z,100587.44
2023-05-02T09:50:35.037Z,100589.19
2023-05-02T09:53:07.332Z,100598.59
2023-05-02T09:55:34.508Z,100598.59
2023-05-02T09:58:02.037Z,100600.28
2023-05-02T10:00:43.120Z,100600.09
2023-05-02T10:03:11.637Z,100606.66
2023-05-02T10:05:40.488Z,100600.25
2023-05-02T10:08:10.059Z,100595.50
2023-05-02T10:10:40.745Z,100608.56
2023-05-02T10:13:09.779Z,100599.09
2023-05-02T10:15:43.656Z,100603.44
2023-05-02T10:18:24.386Z,100613.13
2023-05-02T10:21:09.158Z,100616.28
2023-05-02T10:23:36.994Z,100610.13
2023-05-02T10:26:04.374Z,100618.75
2023-05-02T10:28:31.596Z,100618.13
2023-05-02T10:31:00.871Z,100625.94
2023-05-02T10:33:31.782Z,100628.88
2023-05-02T10:35:59.144Z,100632.75
2023-05-02T10:38:26.644Z,100620.09
2023-05-02T10:41:04.918Z,100634.47
2023-05-02T10:43:36.115Z,100634.13
2023-05-02T10:46:03.566Z,100622.53
2023-05-02T10:48:31.092Z,100626.31
2023-05-02T10:51:01.739Z,100627.38
2023-05-02T10:53:37.331Z,100621.59
2023-05-02T10:56:22.080Z,100627.66
2023-05-02T10:58:51.784Z,100625.06
2023-05-02T11:01:32.229Z,100626.78
2023-05-02T11:04:03.402Z,100627.53
2023-05-02T11:06:34.670Z,100626.63
2023-05-02T11:09:15.025Z,100627.34
2023-05-02T11:11:54.827Z,100626.47
2023-05-02T11:14:33.754Z,100629.06
2023-05-02T11:17:06.513Z,100619.72
2023-05-02T11:19:56.476Z,100623.66
2023-05-02T11:22:34.148Z,100626.78
2023-05-02T11:25:01.614Z,100621.63
2023-05-02T11:27:37.955Z,100622.63
2023-05-02T11:30:09.977Z,100626.84
2023-05-02T11:32:47.551Z,100620.72
2023-05-02T11:35:26.925Z,100613.19
2023-05-02T11:37:58.250Z,100622.28
2023-05-02T11:40:27.189Z,100630.44
2023-05-02T11:42:55.538Z,100615.84
2023-05-02T11:45:32.365Z,100628.59
2023-05-02T11:47:59.542Z,100627.38
2023-05-02T11:50:30.195Z,100618.97
2023-05-02T11:52:57.207Z,100625.94
2023-05-02T11:55:24.588Z,100622.88
2023-05-02T11:57:51.652Z,100637.28
2023-05-02T12:00:18.903Z,100630.25
2023-05-02T12:02:48.806Z,100631.75
2023-05-02T12:05:29.271Z,100631.63
2023-05-02T12:07:56.217Z,100633.72
2023-05-02T12:10:23.621Z,100630.66
2023-05-02T12:12:51.142Z,100639.38
2023-05-02T12:15:18.668Z,100649.75
2023-05-02T12:17:49.210Z,100652.38
2023-05-02T12:20:17.481Z,100650.97
2023-05-02T12:22:45.545Z,100646.84
2023-05-02T12:25:12.635Z,100656.34
2023-05-02T12:27:39.824Z,100650.97
2023-05-02T12:30:07.562Z,100654.97
2023-05-02T12:32:36.884Z,100658.13
2023-05-02T12:35:04.380Z,100657.53
2023-05-02T12:37:32.517Z,100666.53
2023-05-02T12:39:59.840Z,100659.34
2023-05-02T12:42:28.289Z,100663.19
2023-05-02T12:44:56.799Z,100665.75
2023-05-02T12:47:24.725Z,100667.44
2023-05-02T12:49:55.112Z,100674.44
2023-05-02T12:52:57.484Z,100659.91
2023-05-02T12:55:29.737Z,100670.41
2023-05-02T12:58:13.651Z,100676.63
2023-05-02T13:00:44.800Z,100664.88
2023-05-02T13:03:13.159Z,100667.72
2023-05-02T13:05:40.268Z,100674.03
2023-05-02T13:08:07.287Z,100675.72
2023-05-02T13:10:34.342Z,100679.81
2023-05-02T13:13:01.617Z,100683.78
2023-05-02T13:15:29.025Z,100676.53
2023-05-02T13:17:56.221Z,100683.97
2023-05-02T13:20:23.367Z,100669.84
2023-05-02T13:22:50.364Z,100676.19
2023-05-02T13:25:17.454Z,100683.31
2023-05-02T13:27:45.996Z,100675.06
2023-05-02T13:30:13.473Z,100676.16
2023-05-02T13:32:40.750Z,100675.88
2023-05-02T13:35:09.028Z,100683.03
2023-05-02T13:37:35.917Z,100685.28
2023-05-02T13:40:03.008Z,100680.97
2023-05-02T13:42:30.432Z,100691.47
2023-05-02T13:44:57.478Z,100690.31
2023-05-02T13:47:24.678Z,100681.19
2023-05-02T13:49:52.057Z,100685.56
2023-05-02T13:52:19.197Z,100689.28
2023-05-02T13:54:46.177Z,100694.53
2023-05-02T13:57:13.244Z,100699.69
2023-05-02T13:59:40.282Z,100701.31
2023-05-02T14:02:08.088Z,100689.16
2023-05-02T14:04:35.349Z,100684.03
2023-05-02T14:07:03.095Z,100684.47
2023-05-02T14:09:30.145Z,100691.84
2023-05-02T14:11:58.678Z,100684.53
2023-05-02T14:14:25.919Z,100686.44
2023-05-02T14:16:53.365Z,100689.88
2023-05-02T14:19:20.488Z,100694.16
2023-05-02T14:21:47.625Z,100692.41
2023-05-02T14:24:16.311Z,100686.31
2023-05-02T14:26:43.446Z,100681.13
2023-05-02T14:29:10.662Z,100680.28
2023-05-02T14:31:37.720Z,100685.22
2023-05-02T14:34:06.881Z,100685.97
2023-05-02T14:36:35.244Z,100684.19
2023-05-02T14:39:02.276Z,100676.47
2023-05-02T14:41:29.791Z,100673.88
2023-05-02T14:43:56.702Z,100686.56
2023-05-02T14:46:23.728Z,100681.13
2023-05-02T14:48:50.688Z,100683.66
2023-05-02T14:51:17.686Z,100686.31
2023-05-02T14:53:45.149Z,100685.72
2023-05-02T14:56:14.698Z,100685.09
2023-05-02T14:58:41.685Z,100686.06
2023-05-02T15:01:17.492Z,100683.63
2023-05-02T15:03:56.998Z,100678.66
2023-05-02T15:06:31.574Z,100687.72
2023-05-02T15:08:58.642Z,100679.56
2023-05-02T15:11:25.807Z,100670.38
2023-05-02T15:13:52.725Z,100677.44
2023-05-02T15:16:20.234Z,100667.25
2023-05-02T15:18:47.357Z,100682.00
2023-05-02T15:21:14.317Z,100665.97
2023-05-02T15:23:41.287Z,100685.97
2023-05-02T15:26:08.202Z,100692.22
2023-05-02T15:28:35.170Z,100683.22
2023-05-02T15:31:02.083Z,100673.25
2023-05-02T15:33:29.036Z,100686.28
2023-05-02T15:35:58.513Z,100694.03
2023-05-02T15:38:25.896Z,100699.25
2023-05-02T15:40:58.009Z,100693.31
2023-05-02T15:43:25.956Z,100696.78
2023-05-02T15:45:58.046Z,100694.34
2023-05-02T15:48:32.965Z,100692.78
2023-05-02T15:51:00.135Z,100694.59
2023-05-02T15:53:27.391Z,100686.97
2023-05-02T15:55:54.596Z,100695.66
2023-05-02T15:58:21.648Z,100695.84
2023-05-02T16:00:48.789Z,100696.84
2023-05-02T16:03:16.372Z,100699.53
2023-05-02T16:05:43.368Z,100701.38
2023-05-02T16:08:10.422Z,100700.66
2023-05-02T16:10:39.133Z,100698.19
2023-05-02T16:13:06.294Z,100712.88
2023-05-02T16:15:33.270Z,100703.66
2023-05-02T16:18:00.325Z,100703.81
2023-05-02T16:20:28.822Z,100696.28
2023-05-02T16:22:56.046Z,100708.41
2023-05-02T16:25:23.098Z,100704.28
2023-05-02T16:27:50.027Z,100700.16
2023-05-02T16:30:17.082Z,100701.09
2023-05-02T16:32:44.166Z,100692.72
2023-05-02T16:35:13.111Z,100689.38
2023-05-02T16:37:41.906Z,100694.53
2023-05-02T16:40:10.408Z,100695.44
2023-05-02T16:42:37.773Z,100700.59
2023-05-02T16:45:06.411Z,100698.91
2023-05-02T16:47:35.382Z,100702.31
2023-05-02T16:50:03.210Z,100696.38
2023-05-02T16:52:30.779Z,100705.78
2023-05-02T16:54:57.781Z,100709.22
2023-05-02T16:57:24.776Z,100710.13
2023-05-02T16:59:52.689Z,100705.94
2023-05-02T17:02:21.927Z,100709.41
2023-05-02T17:04:50.021Z,100717.97
2023-05-02T17:07:17.589Z,100711.16
2023-05-02T17:09:44.948Z,100708.66
2023-05-02T17:12:12.861Z,100712.94
2023-05-02T17:14:42.631Z,100721.47
2023-05-02T17:17:10.204Z,100722.34
2023-05-02T17:19:38.278Z,100717.28
2023-05-02T17:22:06.557Z,100728.38
2023-05-02T17:24:33.563Z,100726.72
2023-05-02T17:27:02.697Z,100723.31
2023-05-02T17:29:30.488Z,100722.44
2023-05-02T17:32:00.045Z,100724.97
2023-05-02T17:34:30.179Z,100719.06
2023-05-02T17:36:57.163Z,100720.78
2023-05-02T17:39:24.103Z,100722.50
2023-05-02T17:41:51.103Z,100717.38
2023-05-02T17:44:18.393Z,100722.50
2023-05-02T17:46:46.601Z,100723.34
2023-05-02T17:49:13.776Z,100711.47
2023-05-02T17:51:40.870Z,100718.28
2023-05-02T17:54:07.840Z,100714.03
2023-05-02T17:56:36.660Z,100720.84
2023-05-02T17:59:04.947Z,100721.66
2023-05-02T18:01:32.124Z,100719.97
2023-05-02T18:03:59.516Z,100724.25
2023-05-02T18:06:28.076Z,100724.22
2023-05-02T18:08:55.445Z,100721.66
2023-05-02T18:11:24.126Z,100724.22
2023-05-02T18:13:51.303Z,100725.06
2023-05-02T18:16:18.894Z,100729.31
2023-05-02T18:18:46.027Z,100729.31
2023-05-02T18:21:22.411Z,100733.56
2023-05-02T18:23:49.446Z,100741.19
2023-05-02T18:26:16.405Z,100740.28
2023-05-02T18:28:45.034Z,100738.59
2023-05-02T18:31:18.230Z,100741.94
2023-05-02T18:33:46.772Z,100738.53
2023-05-02T18:36:19.212Z,100736.81
2023-05-02T18:38:46.664Z,100741.91
2023-05-02T18:41:13.649Z,100742.72
2023-05-02T18:43:40.584Z,100735.91
2023-05-02T18:46:09.159Z,100734.22
2023-05-02T18:48:36.321Z,100736.72
2023-05-02T18:51:03.763Z,100745.16
2023-05-02T18:53:31.238Z,100740.91
2023-05-02T18:55:58.306Z,100743.41
2023-05-02T18:58:25.286Z,100745.94
2023-05-02T19:00:52.232Z,100743.47
2023-05-02T19:03:19.625Z,100740.91
2023-05-02T19:05:46.733Z,100750.97
2023-05-02T19:08:13.663Z,100750.09
2023-05-02T19:10:41.449Z,100761.03
2023-05-02T19:13:09.060Z,100755.88
2023-05-02T19:15:36.170Z,100770.25
2023-05-02T19:18:03.641Z,100755.75
2023-05-02T19:20:30.810Z,100761.66
2023-05-02T19:23:10.955Z,100765.03
2023-05-02T19:25:46.024Z,100770.88
2023-05-02T19:28:15.827Z,100781.84
2023-05-02T19:30:45.231Z,100780.91
2023-05-02T19:33:12.487Z,100774.06
2023-05-02T19:35:40.163Z,100782.44
2023-05-02T19:38:07.336Z,100785.78
2023-05-02T19:40:34.315Z,100791.63
2023-05-02T19:43:01.691Z,100794.13
2023-05-02T19:45:28.724Z,100799.94
2023-05-02T19:47:56.428Z,100807.47
2023-05-02T19:50:25.707Z,100804.84
2023-05-02T19:52:52.714Z,100797.13
2023-05-02T19:55:20.764Z,100800.44
2023-05-02T19:57:48.665Z,100808.78
2023-05-02T20:00:16.160Z,100805.31
2023-05-02T20:02:44.587Z,100810.28
2023-05-02T20:05:11.742Z,100810.22
2023-05-02T20:07:38.837Z,100816.03
2023-05-02T20:10:06.937Z,100820.16
2023-05-02T20:12:33.925Z,100821.78
2023-05-02T20:15:01.098Z,100826.75
2023-05-02T20:17:29.173Z,100820.75
2023-05-02T20:19:56.378Z,100832.50
2023-05-02T20:22:24.210Z,100832.44
2023-05-02T20:24:51.129Z,100831.50
2023-05-02T20:27:18.109Z,100833.09
2023-05-02T20:29:45.042Z,100833.00
2023-05-02T20:32:12.064Z,100836.28
2023-05-02T20:34:40.277Z,100840.44
2023-05-02T20:37:07.291Z,100842.81
2023-05-02T20:39:34.297Z,100846.97
2023-05-02T20:42:01.494Z,100845.22
2023-05-02T20:44:30.010Z,100851.91
2023-05-02T20:46:57.062Z,100855.19
2023-05-02T20:49:24.087Z,100845.00
2023-05-02T20:51:51.515Z,100853.44
2023-05-02T20:54:18.880Z,100855.84
2023-05-02T20:56:45.918Z,100856.63
2023-05-02T20:59:12.905Z,100859.09
2023-05-02T21:01:40.148Z,100858.16
2023-05-02T21:04:07.205Z,100856.34
2023-05-02T21:06:34.241Z,100857.16
2023-05-02T21:09:01.955Z,100863.88
2023-05-02T21:11:29.360Z,100862.94
2023-05-02T21:13:56.327Z,100863.72
2023-05-02T21:16:23.337Z,100867.84
2023-05-02T21:18:50.405Z,100865.25
2023-05-02T21:21:17.412Z,100861.81
2023-05-02T21:23:44.475Z,100853.28
2023-05-02T21:26:11.406Z,100858.31
2023-05-02T21:28:38.775Z,100861.59
2023-05-02T21:31:07.993Z,100867.44
2023-05-02T21:33:35.590Z,100859.72
2023-05-02T21:36:02.585Z,100863.06
2023-05-02T21:38:29.656Z,100866.41
2023-05-02T21:41:01.666Z,100868.88
2023-05-02T21:43:29.703Z,100871.34
2023-05-02T21:45:56.663Z,100867.09
2023-05-02T21:48:23.647Z,100878.00
2023-05-02T21:50:50.859Z,100873.75
2023-05-02T21:53:18.065Z,100873.75
2023-05-02T21:55:45.035Z,100876.25
2023-05-02T21:58:12.433Z,100886.34
2023-05-02T22:00:41.618Z,100878.66
2023-05-02T22:03:11.810Z,100885.41
2023-05-02T22:05:41.274Z,100881.16
2023-05-02T22:08:10.925Z,100884.53
2023-05-02T22:10:43.387Z,100880.31
2023-05-02T22:13:13.392Z,100878.59
2023-05-02T22:15:45.499Z,100881.03
2023-05-02T22:18:17.282Z,100886.06
2023-05-02T22:20:45.501Z,100886.06
2023-05-02T22:23:13.374Z,100880.16
2023-05-02T22:25:43.332Z,100886.84
2023-05-02T22:28:13.847Z,100882.66
2023-05-02T22:30:42.969Z,100881.78
2023-05-02T22:33:10.901Z,100890.16
2023-05-02T22:35:38.219Z,100879.03
2023-05-02T22:38:08.739Z,100881.50
2023-05-02T22:40:35.960Z,100882.22
2023-05-02T22:43:02.898Z,100875.38
2023-05-02T22:45:29.891Z,100882.06
2023-05-02T22:47:57.076Z,100885.31
2023-05-02T22:50:26.125Z,100878.47
2023-05-02T22:52:57.357Z,100875.91
2023-05-02T22:55:24.546Z,100870.72
2023-05-02T22:57:51.961Z,100883.28
2023-05-02T23:00:18.959Z,100881.44
2023-05-02T23:02:46.057Z,100880.38
2023-05-02T23:05:13.104Z,100870.97
2023-05-02T23:07:40.152Z,100878.41
2023-05-02T23:10:08.393Z,100874.91
2023-05-02T23:12:35.411Z,100876.50
2023-05-02T23:15:02.765Z,100870.50
2023-05-02T23:17:29.738Z,100874.63
2023-05-02T23:19:57.654Z,100862.75
2023-05-02T23:22:24.711Z,100866.03
2023-05-02T23:24:51.651Z,100868.50
2023-05-02T23:27:18.596Z,100876.00
2023-05-02T23:29:48.748Z,100873.38
2023-05-02T23:32:16.897Z,100874.16
2023-05-02T23:34:44.498Z,100872.41
2023-05-02T23:37:12.826Z,100875.75
2023-05-02T23:39:40.269Z,100867.31
2023-05-02T23:42:07.437Z,100863.88
2023-05-02T23:44:34.349Z,100857.19
2023-05-02T23:47:01.541Z,100856.28
2023-05-02T23:49:28.566Z,100854.56
2023-05-02T23:51:55.549Z,100861.34
2023-05-02T23:54:22.491Z,100862.13
2023-05-02T23:56:49.852Z,100859.63
2023-05-02T23:59:16.866Z,100854.47
